Station Historical Data
Daily Summary for June 7, 2012 Units:  Both    English   Metric
« Previous Day
Next Day »
Daily Weekly Monthly Yearly Custom
  High: Low: Average:
Temperature: 81.0 °F /  27.2 °C 57.8 °F /  14.3 °C 69.2 °F /  20.7 °C
Dew Point: 65.3 °F /  18.5 °C 53.3 °F /  11.8 °C 57.7 °F /  14.3 °C
Humidity: 85% 44% 68%
Wind Speed: 10.0mph /  16.1km/h - 3.3mph /  5.3km/h
Wind Gust: 12.0mph /  19.3km/h - -
Wind- - ESE
Pressure: 30.00 in /  1015.8 hPa 29.93 in /  1013.4 hPa -
Precipitation: 0.00 in /  0 mm    
Historical Graphs
 
 
Tabular Data for June 7, 2012
Time Temperature Dew Point Pressure Wind Wind Speed Wind Gust Humidity Rainfall Rate (Hourly) Conditions
00:00 62.8 °F /  17.1 °C 55.5 °F /  13.1 °C 29.95in /  1014.1hPa North 2.0mph /  3.2km/h 3.0mph /  4.8km/h 77% 0.00in /  0mm
00:05 62.6 °F /  17 °C 55.7 °F /  13.2 °C 29.96in /  1014.4hPa North 2.0mph /  3.2km/h 3.0mph /  4.8km/h 78% 0.00in /  0mm
00:10 62.6 °F /  17 °C 55.7 °F /  13.2 °C 29.96in /  1014.4hPa North 2.0mph /  3.2km/h 3.0mph /  4.8km/h 78% 0.00in /  0mm
00:15 62.6 °F /  17 °C 55.7 °F /  13.2 °C 29.96in /  1014.4hPa NNE 2.0mph /  3.2km/h 4.0mph /  6.4km/h 78% 0.00in /  0mm
00:20 62.6 °F /  17 °C 55.7 °F /  13.2 °C 29.96in /  1014.4hPa North 2.0mph /  3.2km/h 4.0mph /  6.4km/h 78% 0.00in /  0mm
00:25 62.5 °F /  16.9 °C 55.6 °F /  13.1 °C 29.96in /  1014.4hPa North 2.0mph /  3.2km/h 4.0mph /  6.4km/h 78% 0.00in /  0mm
00:30 62.4 °F /  16.9 °C 55.5 °F /  13.1 °C 29.96in /  1014.4hPa NNE 2.0mph /  3.2km/h 4.0mph /  6.4km/h 78% 0.00in /  0mm
00:35 62.3 °F /  16.8 °C 55.4 °F /  13 °C 29.96in /  1014.4hPa NNW 4.0mph /  6.4km/h 4.0mph /  6.4km/h 78% 0.00in /  0mm
00:40 62.2 °F /  16.8 °C 55.3 °F /  12.9 °C 29.96in /  1014.4hPa NNW 3.0mph /  4.8km/h 4.0mph /  6.4km/h 78% 0.00in /  0mm
00:45 62.1 °F /  16.7 °C 55.2 °F /  12.9 °C 29.95in /  1014.1hPa NNE 2.0mph /  3.2km/h 4.0mph /  6.4km/h 78% 0.00in /  0mm
00:50 62.1 °F /  16.7 °C 55.2 °F /  12.9 °C 29.96in /  1014.4hPa North 3.0mph /  4.8km/h 3.0mph /  4.8km/h 78% 0.00in /  0mm
00:55 62.0 °F /  16.7 °C 55.1 °F /  12.8 °C 29.95in /  1014.1hPa North 3.0mph /  4.8km/h 4.0mph /  6.4km/h 78% 0.00in /  0mm
01:00 61.8 °F /  16.6 °C 54.9 °F /  12.7 °C 29.95in /  1014.1hPa North 2.0mph /  3.2km/h 3.0mph /  4.8km/h 78% 0.00in /  0mm
01:05 61.6 °F /  16.4 °C 55.0 °F /  12.8 °C 29.95in /  1014.1hPa North 1.0mph /  1.6km/h 3.0mph /  4.8km/h 79% 0.00in /  0mm
01:10 61.5 °F /  16.4 °C 54.9 °F /  12.7 °C 29.95in /  1014.1hPa North 4.0mph /  6.4km/h 4.0mph /  6.4km/h 79% 0.00in /  0mm
01:15 61.7 °F /  16.5 °C 54.8 °F /  12.7 °C 29.95in /  1014.1hPa NNW 2.0mph /  3.2km/h 4.0mph /  6.4km/h 78% 0.00in /  0mm
01:20 61.8 °F /  16.6 °C 54.9 °F /  12.7 °C 29.95in /  1014.1hPa North 3.0mph /  4.8km/h 3.0mph /  4.8km/h 78% 0.00in /  0mm
01:25 61.7 °F /  16.5 °C 54.8 °F /  12.7 °C 29.96in /  1014.4hPa NNW 2.0mph /  3.2km/h 3.0mph /  4.8km/h 78% 0.00in /  0mm
01:30 61.6 °F /  16.4 °C 54.7 °F /  12.6 °C 29.95in /  1014.1hPa North 3.0mph /  4.8km/h 3.0mph /  4.8km/h 78% 0.00in /  0mm
01:35 61.6 °F /  16.4 °C 54.7 °F /  12.6 °C 29.95in /  1014.1hPa NE 1.0mph /  1.6km/h 2.0mph /  3.2km/h 78% 0.00in /  0mm
01:41 61.6 °F /  16.4 °C 54.7 °F /  12.6 °C 29.95in /  1014.1hPa NNE 2.0mph /  3.2km/h 3.0mph /  4.8km/h 78% 0.00in /  0mm
01:46 61.6 °F /  16.4 °C 54.7 °F /  12.6 °C 29.95in /  1014.1hPa NNE 1.0mph /  1.6km/h 3.0mph /  4.8km/h 78% 0.00in /  0mm
01:51 61.7 °F /  16.5 °C 54.8 °F /  12.7 °C 29.95in /  1014.1hPa NNE 2.0mph /  3.2km/h 4.0mph /  6.4km/h 78% 0.00in /  0mm
01:56 61.6 °F /  16.4 °C 54.7 °F /  12.6 °C 29.95in /  1014.1hPa NNE 2.0mph /  3.2km/h 2.0mph /  3.2km/h 78% 0.00in /  0mm
02:01 61.5 °F /  16.4 °C 54.6 °F /  12.6 °C 29.95in /  1014.1hPa NE 1.0mph /  1.6km/h 4.0mph /  6.4km/h 78% 0.00in /  0mm
02:06 61.3 °F /  16.3 °C 54.4 °F /  12.4 °C 29.95in /  1014.1hPa NNE 2.0mph /  3.2km/h 3.0mph /  4.8km/h 78% 0.00in /  0mm
02:11 61.3 °F /  16.3 °C 54.4 °F /  12.4 °C 29.94in /  1013.8hPa NNE 2.0mph /  3.2km/h 5.0mph /  8km/h 78% 0.00in /  0mm
02:16 61.3 °F /  16.3 °C 54.4 °F /  12.4 °C 29.94in /  1013.8hPa NNE 1.0mph /  1.6km/h 5.0mph /  8km/h 78% 0.00in /  0mm
02:21 61.3 °F /  16.3 °C 54.4 °F /  12.4 °C 29.95in /  1014.1hPa North 3.0mph /  4.8km/h 3.0mph /  4.8km/h 78% 0.00in /  0mm
02:26 61.3 °F /  16.3 °C 54.4 °F /  12.4 °C 29.95in /  1014.1hPa NNE 3.0mph /  4.8km/h 4.0mph /  6.4km/h 78% 0.00in /  0mm
02:31 61.2 °F /  16.2 °C 54.3 °F /  12.4 °C 29.95in /  1014.1hPa NNE 2.0mph /  3.2km/h 4.0mph /  6.4km/h 78% 0.00in /  0mm
02:36 61.1 °F /  16.2 °C 54.2 °F /  12.3 °C 29.95in /  1014.1hPa NNE 4.0mph /  6.4km/h 5.0mph /  8km/h 78% 0.00in /  0mm
02:41 61.2 °F /  16.2 °C 54.3 °F /  12.4 °C 29.95in /  1014.1hPa North 2.0mph /  3.2km/h 3.0mph /  4.8km/h 78% 0.00in /  0mm
02:46 61.1 °F /  16.2 °C 54.2 °F /  12.3 °C 29.94in /  1013.8hPa NNW 2.0mph /  3.2km/h 4.0mph /  6.4km/h 78% 0.00in /  0mm
02:51 60.9 °F /  16.1 °C 54.3 °F /  12.4 °C 29.95in /  1014.1hPa NNE 2.0mph /  3.2km/h 3.0mph /  4.8km/h 79% 0.00in /  0mm
02:56 60.9 °F /  16.1 °C 54.3 °F /  12.4 °C 29.95in /  1014.1hPa NE 2.0mph /  3.2km/h 5.0mph /  8km/h 79% 0.00in /  0mm
03:01 60.7 °F /  15.9 °C 54.2 °F /  12.3 °C 29.95in /  1014.1hPa NE 3.0mph /  4.8km/h 4.0mph /  6.4km/h 79% 0.00in /  0mm
03:06 60.7 °F /  15.9 °C 54.2 °F /  12.3 °C 29.95in /  1014.1hPa ENE 2.0mph /  3.2km/h 4.0mph /  6.4km/h 79% 0.00in /  0mm
03:11 60.5 °F /  15.8 °C 54.3 °F /  12.4 °C 29.95in /  1014.1hPa North 2.0mph /  3.2km/h 4.0mph /  6.4km/h 80% 0.00in /  0mm
03:16 60.5 °F /  15.8 °C 54.0 °F /  12.2 °C 29.94in /  1013.8hPa NNE 2.0mph /  3.2km/h 4.0mph /  6.4km/h 79% 0.00in /  0mm
03:21 60.3 °F /  15.7 °C 54.1 °F /  12.3 °C 29.95in /  1014.1hPa NNE 2.0mph /  3.2km/h 3.0mph /  4.8km/h 80% 0.00in /  0mm
03:26 60.1 °F /  15.6 °C 53.9 °F /  12.2 °C 29.94in /  1013.8hPa North 2.0mph /  3.2km/h 2.0mph /  3.2km/h 80% 0.00in /  0mm
03:31 60.0 °F /  15.6 °C 54.2 °F /  12.3 °C 29.95in /  1014.1hPa NNE 1.0mph /  1.6km/h 3.0mph /  4.8km/h 81% 0.00in /  0mm
03:36 59.7 °F /  15.4 °C 53.9 °F /  12.2 °C 29.94in /  1013.8hPa NNE 2.0mph /  3.2km/h 2.0mph /  3.2km/h 81% 0.00in /  0mm
03:41 59.5 °F /  15.3 °C 54.0 °F /  12.2 °C 29.94in /  1013.8hPa NNE 2.0mph /  3.2km/h 2.0mph /  3.2km/h 82% 0.00in /  0mm
03:46 59.3 °F /  15.2 °C 53.8 °F /  12.1 °C 29.94in /  1013.8hPa North 2.0mph /  3.2km/h 4.0mph /  6.4km/h 82% 0.00in /  0mm
03:52 59.2 °F /  15.1 °C 53.7 °F /  12.1 °C 29.94in /  1013.8hPa North 2.0mph /  3.2km/h 2.0mph /  3.2km/h 82% 0.00in /  0mm
03:57 59.1 °F /  15.1 °C 54.0 °F /  12.2 °C 29.94in /  1013.8hPa NE 3.0mph /  4.8km/h 4.0mph /  6.4km/h 83% 0.00in /  0mm
04:02 59.1 °F /  15.1 °C 54.0 °F /  12.2 °C 29.94in /  1013.8hPa NNE 3.0mph /  4.8km/h 4.0mph /  6.4km/h 83% 0.00in /  0mm
04:07 59.1 °F /  15.1 °C 54.0 °F /  12.2 °C 29.94in /  1013.8hPa NNE 1.0mph /  1.6km/h 3.0mph /  4.8km/h 83% 0.00in /  0mm
04:12 59.0 °F /  15 °C 53.8 °F /  12.1 °C 29.94in /  1013.8hPa NNE 4.0mph /  6.4km/h 4.0mph /  6.4km/h 83% 0.00in /  0mm
04:17 59.0 °F /  15 °C 53.8 °F /  12.1 °C 29.94in /  1013.8hPa NE 2.0mph /  3.2km/h 4.0mph /  6.4km/h 83% 0.00in /  0mm
04:22 59.1 °F /  15.1 °C 54.0 °F /  12.2 °C 29.94in /  1013.8hPa North 3.0mph /  4.8km/h 5.0mph /  8km/h 83% 0.00in /  0mm
04:27 59.1 °F /  15.1 °C 54.0 °F /  12.2 °C 29.94in /  1013.8hPa NE 3.0mph /  4.8km/h 3.0mph /  4.8km/h 83% 0.00in /  0mm
04:32 58.8 °F /  14.9 °C 53.7 °F /  12.1 °C 29.94in /  1013.8hPa NNE 3.0mph /  4.8km/h 3.0mph /  4.8km/h 83% 0.00in /  0mm
04:37 58.6 °F /  14.8 °C 53.8 °F /  12.1 °C 29.94in /  1013.8hPa North 2.0mph /  3.2km/h 3.0mph /  4.8km/h 84% 0.00in /  0mm
04:42 58.5 °F /  14.7 °C 53.7 °F /  12.1 °C 29.94in /  1013.8hPa ENE 2.0mph /  3.2km/h 4.0mph /  6.4km/h 84% 0.00in /  0mm
04:47 58.4 °F /  14.7 °C 53.6 °F /  12 °C 29.95in /  1014.1hPa North 3.0mph /  4.8km/h 5.0mph /  8km/h 84% 0.00in /  0mm
04:52 58.4 °F /  14.7 °C 53.6 °F /  12 °C 29.94in /  1013.8hPa NE 3.0mph /  4.8km/h 4.0mph /  6.4km/h 84% 0.00in /  0mm
04:57 58.2 °F /  14.6 °C 53.4 °F /  11.9 °C 29.94in /  1013.8hPa NE 2.0mph /  3.2km/h 5.0mph /  8km/h 84% 0.00in /  0mm
05:02 58.2 °F /  14.6 °C 53.7 °F /  12.1 °C 29.94in /  1013.8hPa North 4.0mph /  6.4km/h 5.0mph /  8km/h 85% 0.00in /  0mm
05:07 58.0 °F /  14.4 °C 53.5 °F /  11.9 °C 29.94in /  1013.8hPa NE 1.0mph /  1.6km/h 3.0mph /  4.8km/h 85% 0.00in /  0mm
05:12 58.0 °F /  14.4 °C 53.5 °F /  11.9 °C 29.94in /  1013.8hPa NNE 2.0mph /  3.2km/h 4.0mph /  6.4km/h 85% 0.00in /  0mm
05:17 58.0 °F /  14.4 °C 53.5 °F /  11.9 °C 29.95in /  1014.1hPa North 2.0mph /  3.2km/h 5.0mph /  8km/h 85% 0.00in /  0mm
05:22 58.0 °F /  14.4 °C 53.5 °F /  11.9 °C 29.95in /  1014.1hPa NNE 3.0mph /  4.8km/h 4.0mph /  6.4km/h 85% 0.00in /  0mm
05:27 57.9 °F /  14.4 °C 53.4 °F /  11.9 °C 29.95in /  1014.1hPa NNE 1.0mph /  1.6km/h 6.0mph /  9.7km/h 85% 0.00in /  0mm
05:32 57.8 °F /  14.3 °C 53.3 °F /  11.8 °C 29.95in /  1014.1hPa NNE 3.0mph /  4.8km/h 4.0mph /  6.4km/h 85% 0.00in /  0mm
05:38 57.9 °F /  14.4 °C 53.4 °F /  11.9 °C 29.95in /  1014.1hPa NNE 2.0mph /  3.2km/h 5.0mph /  8km/h 85% 0.00in /  0mm
05:43 57.9 °F /  14.4 °C 53.4 °F /  11.9 °C 29.95in /  1014.1hPa NE 4.0mph /  6.4km/h 4.0mph /  6.4km/h 85% 0.00in /  0mm
05:48 57.9 °F /  14.4 °C 53.4 °F /  11.9 °C 29.95in /  1014.1hPa NE 2.0mph /  3.2km/h 5.0mph /  8km/h 85% 0.00in /  0mm
05:53 58.1 °F /  14.5 °C 53.6 °F /  12 °C 29.95in /  1014.1hPa North 2.0mph /  3.2km/h 5.0mph /  8km/h 85% 0.00in /  0mm
05:58 58.3 °F /  14.6 °C 53.8 °F /  12.1 °C 29.95in /  1014.1hPa NE 4.0mph /  6.4km/h 5.0mph /  8km/h 85% 0.00in /  0mm
06:03 58.2 °F /  14.6 °C 53.7 °F /  12.1 °C 29.95in /  1014.1hPa NNE 3.0mph /  4.8km/h 5.0mph /  8km/h 85% 0.00in /  0mm
06:08 58.1 °F /  14.5 °C 53.6 °F /  12 °C 29.95in /  1014.1hPa North 4.0mph /  6.4km/h 6.0mph /  9.7km/h 85% 0.00in /  0mm
06:13 58.2 °F /  14.6 °C 53.7 °F /  12.1 °C 29.95in /  1014.1hPa NNE 3.0mph /  4.8km/h 5.0mph /  8km/h 85% 0.00in /  0mm
06:18 58.3 °F /  14.6 °C 53.8 °F /  12.1 °C 29.95in /  1014.1hPa NNE 3.0mph /  4.8km/h 5.0mph /  8km/h 85% 0.00in /  0mm
06:23 58.4 °F /  14.7 °C 53.6 °F /  12 °C 29.96in /  1014.4hPa North 4.0mph /  6.4km/h 6.0mph /  9.7km/h 84% 0.00in /  0mm
06:28 58.5 °F /  14.7 °C 53.7 °F /  12.1 °C 29.96in /  1014.4hPa NNE 3.0mph /  4.8km/h 5.0mph /  8km/h 84% 0.00in /  0mm
06:33 58.4 °F /  14.7 °C 53.6 °F /  12 °C 29.96in /  1014.4hPa NNE 3.0mph /  4.8km/h 4.0mph /  6.4km/h 84% 0.00in /  0mm
06:38 58.3 °F /  14.6 °C 53.5 °F /  11.9 °C 29.96in /  1014.4hPa NE 4.0mph /  6.4km/h 5.0mph /  8km/h 84% 0.00in /  0mm
06:43 58.3 °F /  14.6 °C 53.8 °F /  12.1 °C 29.97in /  1014.8hPa NE 3.0mph /  4.8km/h 5.0mph /  8km/h 85% 0.00in /  0mm
06:48 58.2 °F /  14.6 °C 53.7 °F /  12.1 °C 29.97in /  1014.8hPa NE 3.0mph /  4.8km/h 5.0mph /  8km/h 85% 0.00in /  0mm
06:53 58.2 °F /  14.6 °C 53.7 °F /  12.1 °C 29.97in /  1014.8hPa NE 3.0mph /  4.8km/h 5.0mph /  8km/h 85% 0.00in /  0mm
06:58 58.2 °F /  14.6 °C 53.7 °F /  12.1 °C 29.97in /  1014.8hPa NNE 2.0mph /  3.2km/h 5.0mph /  8km/h 85% 0.00in /  0mm
07:03 58.4 °F /  14.7 °C 53.9 °F /  12.2 °C 29.97in /  1014.8hPa NNE 3.0mph /  4.8km/h 5.0mph /  8km/h 85% 0.00in /  0mm
07:09 58.8 °F /  14.9 °C 54.0 °F /  12.2 °C 29.97in /  1014.8hPa NNE 6.0mph /  9.7km/h 6.0mph /  9.7km/h 84% 0.00in /  0mm
07:14 59.1 °F /  15.1 °C 54.3 °F /  12.4 °C 29.97in /  1014.8hPa NE 4.0mph /  6.4km/h 5.0mph /  8km/h 84% 0.00in /  0mm
07:19 59.4 °F /  15.2 °C 54.2 °F /  12.3 °C 29.97in /  1014.8hPa NE 4.0mph /  6.4km/h 7.0mph /  11.3km/h 83% 0.00in /  0mm
07:24 59.7 °F /  15.4 °C 54.5 °F /  12.5 °C 29.97in /  1014.8hPa NE 5.0mph /  8km/h 5.0mph /  8km/h 83% 0.00in /  0mm
07:29 59.9 °F /  15.5 °C 54.7 °F /  12.6 °C 29.97in /  1014.8hPa NE 3.0mph /  4.8km/h 7.0mph /  11.3km/h 83% 0.00in /  0mm
07:34 60.1 °F /  15.6 °C 54.6 °F /  12.6 °C 29.98in /  1015.1hPa NE 3.0mph /  4.8km/h 7.0mph /  11.3km/h 82% 0.00in /  0mm
07:39 60.3 °F /  15.7 °C 54.8 °F /  12.7 °C 29.98in /  1015.1hPa NE 6.0mph /  9.7km/h 6.0mph /  9.7km/h 82% 0.00in /  0mm
07:44 60.5 °F /  15.8 °C 55.0 °F /  12.8 °C 29.97in /  1014.8hPa NNE 4.0mph /  6.4km/h 7.0mph /  11.3km/h 82% 0.00in /  0mm
07:49 60.8 °F /  16 °C 55.3 °F /  12.9 °C 29.98in /  1015.1hPa NE 4.0mph /  6.4km/h 6.0mph /  9.7km/h 82% 0.00in /  0mm
07:54 61.1 °F /  16.2 °C 55.2 °F /  12.9 °C 29.98in /  1015.1hPa NNE 4.0mph /  6.4km/h 9.0mph /  14.5km/h 81% 0.00in /  0mm
07:59 61.3 °F /  16.3 °C 55.4 °F /  13 °C 29.98in /  1015.1hPa NE 5.0mph /  8km/h 8.0mph /  12.9km/h 81% 0.00in /  0mm
08:04 61.6 °F /  16.4 °C 55.7 °F /  13.2 °C 29.98in /  1015.1hPa NE 3.0mph /  4.8km/h 9.0mph /  14.5km/h 81% 0.00in /  0mm
08:09 62.0 °F /  16.7 °C 55.8 °F /  13.2 °C 29.98in /  1015.1hPa North 4.0mph /  6.4km/h 8.0mph /  12.9km/h 80% 0.00in /  0mm
08:14 62.3 °F /  16.8 °C 56.1 °F /  13.4 °C 29.98in /  1015.1hPa NE 5.0mph /  8km/h 5.0mph /  8km/h 80% 0.00in /  0mm
08:19 62.8 °F /  17.1 °C 56.5 °F /  13.6 °C 29.99in /  1015.5hPa NE 4.0mph /  6.4km/h 8.0mph /  12.9km/h 80% 0.00in /  0mm
08:24 63.2 °F /  17.3 °C 56.6 °F /  13.7 °C 29.99in /  1015.5hPa NE 6.0mph /  9.7km/h 8.0mph /  12.9km/h 79% 0.00in /  0mm
08:29 63.5 °F /  17.5 °C 56.5 °F /  13.6 °C 29.99in /  1015.5hPa ENE 3.0mph /  4.8km/h 8.0mph /  12.9km/h 78% 0.00in /  0mm
08:34 63.9 °F /  17.7 °C 56.9 °F /  13.8 °C 29.99in /  1015.5hPa ENE 4.0mph /  6.4km/h 7.0mph /  11.3km/h 78% 0.00in /  0mm
08:39 64.1 °F /  17.8 °C 56.8 °F /  13.8 °C 29.99in /  1015.5hPa ENE 2.0mph /  3.2km/h 9.0mph /  14.5km/h 77% 0.00in /  0mm
08:44 64.5 °F /  18.1 °C 57.1 °F /  13.9 °C 29.99in /  1015.5hPa NE 5.0mph /  8km/h 8.0mph /  12.9km/h 77% 0.00in /  0mm
08:49 64.7 °F /  18.2 °C 57.3 °F /  14.1 °C 29.99in /  1015.5hPa NE 3.0mph /  4.8km/h 8.0mph /  12.9km/h 77% 0.00in /  0mm
08:54 65.1 °F /  18.4 °C 57.4 °F /  14.1 °C 29.99in /  1015.5hPa NE 4.0mph /  6.4km/h 8.0mph /  12.9km/h 76% 0.00in /  0mm
08:59 65.6 °F /  18.7 °C 57.8 °F /  14.3 °C 29.99in /  1015.5hPa ENE 3.0mph /  4.8km/h 6.0mph /  9.7km/h 76% 0.00in /  0mm
09:04 66.0 °F /  18.9 °C 58.2 °F /  14.6 °C 29.99in /  1015.5hPa NE 6.0mph /  9.7km/h 7.0mph /  11.3km/h 76% 0.00in /  0mm
09:10 66.5 °F /  19.2 °C 58.0 °F /  14.4 °C 30.00in /  1015.8hPa East 1.0mph /  1.6km/h 5.0mph /  8km/h 74% 0.00in /  0mm
09:15 67.1 °F /  19.5 °C 58.5 °F /  14.7 °C 30.00in /  1015.8hPa NE 4.0mph /  6.4km/h 7.0mph /  11.3km/h 74% 0.00in /  0mm
09:20 67.4 °F /  19.7 °C 58.5 °F /  14.7 °C 30.00in /  1015.8hPa NE 5.0mph /  8km/h 6.0mph /  9.7km/h 73% 0.00in /  0mm
09:25 67.6 °F /  19.8 °C 58.7 °F /  14.8 °C 30.00in /  1015.8hPa NE 3.0mph /  4.8km/h 6.0mph /  9.7km/h 73% 0.00in /  0mm
09:30 67.6 °F /  19.8 °C 58.3 °F /  14.6 °C 29.99in /  1015.5hPa East 5.0mph /  8km/h 10.0mph /  16.1km/h 72% 0.00in /  0mm
09:35 67.9 °F /  19.9 °C 58.9 °F /  14.9 °C 30.00in /  1015.8hPa NE 3.0mph /  4.8km/h 8.0mph /  12.9km/h 73% 0.00in /  0mm
09:40 68.3 °F /  20.2 °C 58.5 °F /  14.7 °C 30.00in /  1015.8hPa East 3.0mph /  4.8km/h 7.0mph /  11.3km/h 71% 0.00in /  0mm
09:45 68.8 °F /  20.4 °C 59.0 °F /  15 °C 30.00in /  1015.8hPa East 4.0mph /  6.4km/h 8.0mph /  12.9km/h 71% 0.00in /  0mm
09:50 69.2 °F /  20.7 °C 59.8 °F /  15.4 °C 30.00in /  1015.8hPa NE 8.0mph /  12.9km/h 8.0mph /  12.9km/h 72% 0.00in /  0mm
09:55 69.0 °F /  20.6 °C 59.2 °F /  15.1 °C 30.00in /  1015.8hPa NE 5.0mph /  8km/h 10.0mph /  16.1km/h 71% 0.00in /  0mm
10:00 69.3 °F /  20.7 °C 60.3 °F /  15.7 °C 30.00in /  1015.8hPa NE 6.0mph /  9.7km/h 6.0mph /  9.7km/h 73% 0.00in /  0mm
10:05 69.4 °F /  20.8 °C 60.4 °F /  15.8 °C 30.00in /  1015.8hPa East 3.0mph /  4.8km/h 7.0mph /  11.3km/h 73% 0.00in /  0mm
10:10 69.8 °F /  21 °C 60.8 °F /  16 °C 30.00in /  1015.8hPa ENE 2.0mph /  3.2km/h 7.0mph /  11.3km/h 73% 0.00in /  0mm
10:15 69.8 °F /  21 °C 60.8 °F /  16 °C 29.99in /  1015.5hPa East 4.0mph /  6.4km/h 9.0mph /  14.5km/h 73% 0.00in /  0mm
10:20 70.1 °F /  21.2 °C 61.0 °F /  16.1 °C 29.99in /  1015.5hPa East 2.0mph /  3.2km/h 6.0mph /  9.7km/h 73% 0.00in /  0mm
10:25 70.7 °F /  21.5 °C 60.8 °F /  16 °C 30.00in /  1015.8hPa East 2.0mph /  3.2km/h 6.0mph /  9.7km/h 71% 0.00in /  0mm
10:30 70.5 °F /  21.4 °C 61.0 °F /  16.1 °C 30.00in /  1015.8hPa ESE 2.0mph /  3.2km/h 6.0mph /  9.7km/h 72% 0.00in /  0mm
10:35 70.7 °F /  21.5 °C 61.6 °F /  16.4 °C 30.00in /  1015.8hPa NE 5.0mph /  8km/h 6.0mph /  9.7km/h 73% 0.00in /  0mm
10:40 70.9 °F /  21.6 °C 62.2 °F /  16.8 °C 29.99in /  1015.5hPa NE 6.0mph /  9.7km/h 6.0mph /  9.7km/h 74% 0.00in /  0mm
10:45 71.1 °F /  21.7 °C 62.4 °F /  16.9 °C 29.99in /  1015.5hPa ENE 4.0mph /  6.4km/h 6.0mph /  9.7km/h 74% 0.00in /  0mm
10:50 71.3 °F /  21.8 °C 62.2 °F /  16.8 °C 29.99in /  1015.5hPa East 3.0mph /  4.8km/h 7.0mph /  11.3km/h 73% 0.00in /  0mm
10:55 71.8 °F /  22.1 °C 62.7 °F /  17.1 °C 29.99in /  1015.5hPa East 2.0mph /  3.2km/h 5.0mph /  8km/h 73% 0.00in /  0mm
11:00 72.2 °F /  22.3 °C 62.7 °F /  17.1 °C 29.99in /  1015.5hPa ESE 1.0mph /  1.6km/h 6.0mph /  9.7km/h 72% 0.00in /  0mm
11:06 72.4 °F /  22.4 °C 63.7 °F /  17.6 °C 29.99in /  1015.5hPa ESE 2.0mph /  3.2km/h 5.0mph /  8km/h 74% 0.00in /  0mm
11:11 72.5 °F /  22.5 °C 63.0 °F /  17.2 °C 29.99in /  1015.5hPa Calm   4.0mph /  6.4km/h 72% 0.00in /  0mm
11:16 72.9 °F /  22.7 °C 63.0 °F /  17.2 °C 29.99in /  1015.5hPa ESE 4.0mph /  6.4km/h 5.0mph /  8km/h 71% 0.00in /  0mm
11:21 73.3 °F /  22.9 °C 63.3 °F /  17.4 °C 29.99in /  1015.5hPa NW 3.0mph /  4.8km/h 5.0mph /  8km/h 71% 0.00in /  0mm
11:26 73.4 °F /  23 °C 63.8 °F /  17.7 °C 29.99in /  1015.5hPa NNE 6.0mph /  9.7km/h 7.0mph /  11.3km/h 72% 0.00in /  0mm
11:31 73.3 °F /  22.9 °C 62.5 °F /  16.9 °C 29.99in /  1015.5hPa NE 1.0mph /  1.6km/h 6.0mph /  9.7km/h 69% 0.00in /  0mm
11:36 73.4 °F /  23 °C 63.4 °F /  17.4 °C 29.99in /  1015.5hPa NE 4.0mph /  6.4km/h 6.0mph /  9.7km/h 71% 0.00in /  0mm
11:41 73.7 °F /  23.2 °C 63.3 °F /  17.4 °C 29.99in /  1015.5hPa NE 6.0mph /  9.7km/h 6.0mph /  9.7km/h 70% 0.00in /  0mm
11:46 73.9 °F /  23.3 °C 64.3 °F /  17.9 °C 29.99in /  1015.5hPa NE 5.0mph /  8km/h 7.0mph /  11.3km/h 72% 0.00in /  0mm
11:51 74.5 °F /  23.6 °C 65.3 °F /  18.5 °C 29.99in /  1015.5hPa NW 3.0mph /  4.8km/h 4.0mph /  6.4km/h 73% 0.00in /  0mm
11:56 75.0 °F /  23.9 °C 64.2 °F /  17.9 °C 29.99in /  1015.5hPa NNE 2.0mph /  3.2km/h 5.0mph /  8km/h 69% 0.00in /  0mm
12:01 75.4 °F /  24.1 °C 65.3 °F /  18.5 °C 29.99in /  1015.5hPa East 3.0mph /  4.8km/h 6.0mph /  9.7km/h 71% 0.00in /  0mm
12:06 75.8 °F /  24.3 °C 64.5 °F /  18.1 °C 29.98in /  1015.1hPa North 4.0mph /  6.4km/h 6.0mph /  9.7km/h 68% 0.00in /  0mm
12:11 75.7 °F /  24.3 °C 62.2 °F /  16.8 °C 29.98in /  1015.1hPa East 2.0mph /  3.2km/h 4.0mph /  6.4km/h 63% 0.00in /  0mm
12:16 75.8 °F /  24.3 °C 63.6 °F /  17.6 °C 29.98in /  1015.1hPa North 5.0mph /  8km/h 9.0mph /  14.5km/h 66% 0.00in /  0mm
12:21 75.5 °F /  24.2 °C 61.6 °F /  16.4 °C 29.98in /  1015.1hPa NE 5.0mph /  8km/h 8.0mph /  12.9km/h 62% 0.00in /  0mm
12:26 75.6 °F /  24.2 °C 63.0 °F /  17.2 °C 29.98in /  1015.1hPa ESE 5.0mph /  8km/h 7.0mph /  11.3km/h 65% 0.00in /  0mm
12:31 76.1 °F /  24.5 °C 63.5 °F /  17.5 °C 29.98in /  1015.1hPa NNE 7.0mph /  11.3km/h 8.0mph /  12.9km/h 65% 0.00in /  0mm
12:36 76.4 °F /  24.7 °C 61.5 °F /  16.4 °C 29.98in /  1015.1hPa NE 10.0mph /  16.1km/h 10.0mph /  16.1km/h 60% 0.00in /  0mm
12:41 76.4 °F /  24.7 °C 62.4 °F /  16.9 °C 29.98in /  1015.1hPa North 4.0mph /  6.4km/h 6.0mph /  9.7km/h 62% 0.00in /  0mm
12:46 76.8 °F /  24.9 °C 62.3 °F /  16.8 °C 29.98in /  1015.1hPa NNE 5.0mph /  8km/h 8.0mph /  12.9km/h 61% 0.00in /  0mm
12:51 76.7 °F /  24.8 °C 62.2 °F /  16.8 °C 29.98in /  1015.1hPa NE 6.0mph /  9.7km/h 8.0mph /  12.9km/h 61% 0.00in /  0mm
12:56 75.9 °F /  24.4 °C 61.5 °F /  16.4 °C 29.98in /  1015.1hPa NNE 2.0mph /  3.2km/h 6.0mph /  9.7km/h 61% 0.00in /  0mm
13:01 76.6 °F /  24.8 °C 62.6 °F /  17 °C 29.97in /  1014.8hPa NE 6.0mph /  9.7km/h 10.0mph /  16.1km/h 62% 0.00in /  0mm
13:06 76.4 °F /  24.7 °C 61.5 °F /  16.4 °C 29.97in /  1014.8hPa North 4.0mph /  6.4km/h 7.0mph /  11.3km/h 60% 0.00in /  0mm
13:12 76.4 °F /  24.7 °C 60.5 °F /  15.8 °C 29.97in /  1014.8hPa ENE 7.0mph /  11.3km/h 8.0mph /  12.9km/h 58% 0.00in /  0mm
13:16 76.2 °F /  24.6 °C 61.8 °F /  16.6 °C 29.97in /  1014.8hPa East 3.0mph /  4.8km/h 8.0mph /  12.9km/h 61% 0.00in /  0mm
13:22 77.3 °F /  25.2 °C 62.8 °F /  17.1 °C 29.97in /  1014.8hPa North 4.0mph /  6.4km/h 4.0mph /  6.4km/h 61% 0.00in /  0mm
13:26 77.5 °F /  25.3 °C 61.1 °F /  16.2 °C 29.97in /  1014.8hPa ESE 4.0mph /  6.4km/h 9.0mph /  14.5km/h 57% 0.00in /  0mm
13:32 77.2 °F /  25.1 °C 60.3 °F /  15.7 °C 29.98in /  1015.1hPa NNE 1.0mph /  1.6km/h 7.0mph /  11.3km/h 56% 0.00in /  0mm
13:37 76.9 °F /  24.9 °C 60.5 °F /  15.8 °C 29.97in /  1014.8hPa NNW 3.0mph /  4.8km/h 6.0mph /  9.7km/h 57% 0.00in /  0mm
13:42 77.5 °F /  25.3 °C 61.1 °F /  16.2 °C 29.97in /  1014.8hPa North 4.0mph /  6.4km/h 8.0mph /  12.9km/h 57% 0.00in /  0mm
13:47 77.5 °F /  25.3 °C 61.1 °F /  16.2 °C 29.97in /  1014.8hPa NE 3.0mph /  4.8km/h 6.0mph /  9.7km/h 57% 0.00in /  0mm
13:52 77.5 °F /  25.3 °C 60.1 °F /  15.6 °C 29.97in /  1014.8hPa ESE 7.0mph /  11.3km/h 8.0mph /  12.9km/h 55% 0.00in /  0mm
13:57 77.8 °F /  25.4 °C 61.4 °F /  16.3 °C 29.97in /  1014.8hPa NE 4.0mph /  6.4km/h 4.0mph /  6.4km/h 57% 0.00in /  0mm
14:02 77.9 °F /  25.5 °C 61.0 °F /  16.1 °C 29.97in /  1014.8hPa East 7.0mph /  11.3km/h 7.0mph /  11.3km/h 56% 0.00in /  0mm
14:07 78.8 °F /  26 °C 60.8 °F /  16 °C 29.97in /  1014.8hPa ESE 5.0mph /  8km/h 8.0mph /  12.9km/h 54% 0.00in /  0mm
14:12 78.8 °F /  26 °C 59.7 °F /  15.4 °C 29.97in /  1014.8hPa ESE 4.0mph /  6.4km/h 8.0mph /  12.9km/h 52% 0.00in /  0mm
14:17 79.0 °F /  26.1 °C 62.0 °F /  16.7 °C 29.97in /  1014.8hPa NW 3.0mph /  4.8km/h 8.0mph /  12.9km/h 56% 0.00in /  0mm
14:22 79.2 °F /  26.2 °C 59.5 °F /  15.3 °C 29.97in /  1014.8hPa ESE 1.0mph /  1.6km/h 5.0mph /  8km/h 51% 0.00in /  0mm
14:27 79.4 °F /  26.3 °C 60.8 °F /  16 °C 29.97in /  1014.8hPa Calm   3.0mph /  4.8km/h 53% 0.00in /  0mm
14:33 79.5 °F /  26.4 °C 58.7 °F /  14.8 °C 29.97in /  1014.8hPa East 1.0mph /  1.6km/h 5.0mph /  8km/h 49% 0.00in /  0mm
14:38 79.1 °F /  26.2 °C 58.3 °F /  14.6 °C 29.97in /  1014.8hPa Calm   7.0mph /  11.3km/h 49% 0.00in /  0mm
14:43 79.6 °F /  26.4 °C 59.9 °F /  15.5 °C 29.97in /  1014.8hPa East 5.0mph /  8km/h 5.0mph /  8km/h 51% 0.00in /  0mm
14:48 78.6 °F /  25.9 °C 59.0 °F /  15 °C 29.97in /  1014.8hPa NNE 3.0mph /  4.8km/h 7.0mph /  11.3km/h 51% 0.00in /  0mm
14:53 77.6 °F /  25.3 °C 58.1 °F /  14.5 °C 29.97in /  1014.8hPa NNE 1.0mph /  1.6km/h 6.0mph /  9.7km/h 51% 0.00in /  0mm
14:58 77.4 °F /  25.2 °C 60.0 °F /  15.6 °C 29.97in /  1014.8hPa NNE 3.0mph /  4.8km/h 6.0mph /  9.7km/h 55% 0.00in /  0mm
15:03 78.1 °F /  25.6 °C 58.5 °F /  14.7 °C 29.97in /  1014.8hPa NE 1.0mph /  1.6km/h 6.0mph /  9.7km/h 51% 0.00in /  0mm
15:08 79.0 °F /  26.1 °C 59.3 °F /  15.2 °C 29.96in /  1014.4hPa NNW 7.0mph /  11.3km/h 9.0mph /  14.5km/h 51% 0.00in /  0mm
15:13 79.2 °F /  26.2 °C 57.8 °F /  14.3 °C 29.96in /  1014.4hPa North 2.0mph /  3.2km/h 9.0mph /  14.5km/h 48% 0.00in /  0mm
15:18 79.6 °F /  26.4 °C 59.3 °F /  15.2 °C 29.96in /  1014.4hPa North 5.0mph /  8km/h 9.0mph /  14.5km/h 50% 0.00in /  0mm
15:23 79.7 °F /  26.5 °C 60.0 °F /  15.6 °C 29.96in /  1014.4hPa North 7.0mph /  11.3km/h 7.0mph /  11.3km/h 51% 0.00in /  0mm
15:28 79.9 °F /  26.6 °C 59.0 °F /  15 °C 29.96in /  1014.4hPa NNW 1.0mph /  1.6km/h 5.0mph /  8km/h 49% 0.00in /  0mm
15:33 79.9 °F /  26.6 °C 59.6 °F /  15.3 °C 29.96in /  1014.4hPa NNE 5.0mph /  8km/h 8.0mph /  12.9km/h 50% 0.00in /  0mm
15:38 78.7 °F /  25.9 °C 58.0 °F /  14.4 °C 29.96in /  1014.4hPa North 6.0mph /  9.7km/h 7.0mph /  11.3km/h 49% 0.00in /  0mm
15:43 78.8 °F /  26 °C 58.6 °F /  14.8 °C 29.96in /  1014.4hPa NNW 3.0mph /  4.8km/h 8.0mph /  12.9km/h 50% 0.00in /  0mm
15:48 79.2 °F /  26.2 °C 59.5 °F /  15.3 °C 29.96in /  1014.4hPa NNW 3.0mph /  4.8km/h 7.0mph /  11.3km/h 51% 0.00in /  0mm
15:53 79.9 °F /  26.6 °C 60.2 °F /  15.7 °C 29.96in /  1014.4hPa NNW 10.0mph /  16.1km/h 10.0mph /  16.1km/h 51% 0.00in /  0mm
15:58 80.0 °F /  26.7 °C 59.7 °F /  15.4 °C 29.96in /  1014.4hPa West 1.0mph /  1.6km/h 7.0mph /  11.3km/h 50% 0.00in /  0mm
16:03 80.5 °F /  26.9 °C 60.2 °F /  15.7 °C 29.96in /  1014.4hPa North 7.0mph /  11.3km/h 12.0mph /  19.3km/h 50% 0.00in /  0mm
16:08 80.4 °F /  26.9 °C 58.3 °F /  14.6 °C 29.96in /  1014.4hPa NE 3.0mph /  4.8km/h 7.0mph /  11.3km/h 47% 0.00in /  0mm
16:13 80.4 °F /  26.9 °C 58.9 °F /  14.9 °C 29.95in /  1014.1hPa NE 9.0mph /  14.5km/h 9.0mph /  14.5km/h 48% 0.00in /  0mm
16:18 80.2 °F /  26.8 °C 61.0 °F /  16.1 °C 29.95in /  1014.1hPa NE 5.0mph /  8km/h 8.0mph /  12.9km/h 52% 0.00in /  0mm
16:23 80.1 °F /  26.7 °C 59.2 °F /  15.1 °C 29.95in /  1014.1hPa NNW 5.0mph /  8km/h 8.0mph /  12.9km/h 49% 0.00in /  0mm
16:28 80.2 °F /  26.8 °C 59.9 °F /  15.5 °C 29.95in /  1014.1hPa NE 9.0mph /  14.5km/h 9.0mph /  14.5km/h 50% 0.00in /  0mm
16:33 80.2 °F /  26.8 °C 60.5 °F /  15.8 °C 29.94in /  1013.8hPa NNW 4.0mph /  6.4km/h 7.0mph /  11.3km/h 51% 0.00in /  0mm
16:38 80.2 °F /  26.8 °C 59.3 °F /  15.2 °C 29.95in /  1014.1hPa NNW 6.0mph /  9.7km/h 7.0mph /  11.3km/h 49% 0.00in /  0mm
16:43 80.2 °F /  26.8 °C 57.0 °F /  13.9 °C 29.94in /  1013.8hPa NE 3.0mph /  4.8km/h 7.0mph /  11.3km/h 45% 0.00in /  0mm
16:49 80.1 °F /  26.7 °C 58.1 °F /  14.5 °C 29.94in /  1013.8hPa North 6.0mph /  9.7km/h 7.0mph /  11.3km/h 47% 0.00in /  0mm
16:54 80.1 °F /  26.7 °C 59.8 °F /  15.4 °C 29.94in /  1013.8hPa NW 4.0mph /  6.4km/h 7.0mph /  11.3km/h 50% 0.00in /  0mm
16:59 80.3 °F /  26.8 °C 61.1 °F /  16.2 °C 29.94in /  1013.8hPa NW 3.0mph /  4.8km/h 4.0mph /  6.4km/h 52% 0.00in /  0mm
17:04 80.4 °F /  26.9 °C 58.9 °F /  14.9 °C 29.93in /  1013.4hPa NW 6.0mph /  9.7km/h 6.0mph /  9.7km/h 48% 0.00in /  0mm
17:09 80.7 °F /  27.1 °C 59.8 °F /  15.4 °C 29.94in /  1013.8hPa NNW 3.0mph /  4.8km/h 7.0mph /  11.3km/h 49% 0.00in /  0mm
17:14 80.5 °F /  26.9 °C 57.2 °F /  14 °C 29.94in /  1013.8hPa NNW 6.0mph /  9.7km/h 8.0mph /  12.9km/h 45% 0.00in /  0mm
17:19 80.5 °F /  26.9 °C 60.2 °F /  15.7 °C 29.94in /  1013.8hPa NW 7.0mph /  11.3km/h 8.0mph /  12.9km/h 50% 0.00in /  0mm
17:24 80.8 °F /  27.1 °C 60.4 °F /  15.8 °C 29.94in /  1013.8hPa NE 2.0mph /  3.2km/h 6.0mph /  9.7km/h 50% 0.00in /  0mm
17:29 80.6 °F /  27 °C 57.3 °F /  14.1 °C 29.93in /  1013.4hPa NNE 3.0mph /  4.8km/h 9.0mph /  14.5km/h 45% 0.00in /  0mm
17:34 80.4 °F /  26.9 °C 57.8 °F /  14.3 °C 29.93in /  1013.4hPa NE 2.0mph /  3.2km/h 5.0mph /  8km/h 46% 0.00in /  0mm
17:39 80.3 °F /  26.8 °C 57.0 °F /  13.9 °C 29.93in /  1013.4hPa NNE 6.0mph /  9.7km/h 11.0mph /  17.7km/h 45% 0.00in /  0mm
17:44 80.3 °F /  26.8 °C 57.7 °F /  14.3 °C 29.93in /  1013.4hPa NE 2.0mph /  3.2km/h 7.0mph /  11.3km/h 46% 0.00in /  0mm
17:49 80.4 °F /  26.9 °C 56.5 °F /  13.6 °C 29.93in /  1013.4hPa NE 3.0mph /  4.8km/h 5.0mph /  8km/h 44% 0.00in /  0mm
17:54 80.7 °F /  27.1 °C 58.6 °F /  14.8 °C 29.93in /  1013.4hPa NW 5.0mph /  8km/h 8.0mph /  12.9km/h 47% 0.00in /  0mm
17:59 80.8 °F /  27.1 °C 57.5 °F /  14.2 °C 29.93in /  1013.4hPa NW 3.0mph /  4.8km/h 10.0mph /  16.1km/h 45% 0.00in /  0mm
18:04 81.0 °F /  27.2 °C 59.5 °F /  15.3 °C 29.93in /  1013.4hPa NNE 9.0mph /  14.5km/h 9.0mph /  14.5km/h 48% 0.00in /  0mm
18:09 81.0 °F /  27.2 °C 58.9 °F /  14.9 °C 29.93in /  1013.4hPa North 6.0mph /  9.7km/h 6.0mph /  9.7km/h 47% 0.00in /  0mm
18:14 80.8 °F /  27.1 °C 59.9 °F /  15.5 °C 29.93in /  1013.4hPa NE 4.0mph /  6.4km/h 7.0mph /  11.3km/h 49% 0.00in /  0mm
18:19 80.2 °F /  26.8 °C 58.2 °F /  14.6 °C 29.93in /  1013.4hPa NNE 4.0mph /  6.4km/h 9.0mph /  14.5km/h 47% 0.00in /  0mm
18:24 79.7 °F /  26.5 °C 58.3 °F /  14.6 °C 29.93in /  1013.4hPa NE 5.0mph /  8km/h 9.0mph /  14.5km/h 48% 0.00in /  0mm
18:29 79.7 °F /  26.5 °C 58.3 °F /  14.6 °C 29.93in /  1013.4hPa NNE 5.0mph /  8km/h 7.0mph /  11.3km/h 48% 0.00in /  0mm
18:34 79.7 °F /  26.5 °C 58.9 °F /  14.9 °C 29.93in /  1013.4hPa NNW 7.0mph /  11.3km/h 7.0mph /  11.3km/h 49% 0.00in /  0mm
18:39 79.6 °F /  26.4 °C 59.9 °F /  15.5 °C 29.93in /  1013.4hPa NNE 4.0mph /  6.4km/h 7.0mph /  11.3km/h 51% 0.00in /  0mm
18:44 79.7 °F /  26.5 °C 58.9 °F /  14.9 °C 29.93in /  1013.4hPa NNE 7.0mph /  11.3km/h 8.0mph /  12.9km/h 49% 0.00in /  0mm
18:49 79.7 °F /  26.5 °C 58.3 °F /  14.6 °C 29.93in /  1013.4hPa NE 4.0mph /  6.4km/h 7.0mph /  11.3km/h 48% 0.00in /  0mm
18:54 79.4 °F /  26.3 °C 58.0 °F /  14.4 °C 29.93in /  1013.4hPa NNE 6.0mph /  9.7km/h 10.0mph /  16.1km/h 48% 0.00in /  0mm
18:59 79.1 °F /  26.2 °C 58.9 °F /  14.9 °C 29.93in /  1013.4hPa North 6.0mph /  9.7km/h 8.0mph /  12.9km/h 50% 0.00in /  0mm
19:04 79.0 °F /  26.1 °C 58.8 °F /  14.9 °C 29.93in /  1013.4hPa NNW 3.0mph /  4.8km/h 8.0mph /  12.9km/h 50% 0.00in /  0mm
19:09 78.9 °F /  26.1 °C 58.1 °F /  14.5 °C 29.93in /  1013.4hPa North 4.0mph /  6.4km/h 7.0mph /  11.3km/h 49% 0.00in /  0mm
19:14 78.8 °F /  26 °C 59.7 °F /  15.4 °C 29.94in /  1013.8hPa North 5.0mph /  8km/h 8.0mph /  12.9km/h 52% 0.00in /  0mm
19:19 78.6 °F /  25.9 °C 59.5 °F /  15.3 °C 29.94in /  1013.8hPa NW 3.0mph /  4.8km/h 5.0mph /  8km/h 52% 0.00in /  0mm
19:24 78.5 °F /  25.8 °C 59.4 °F /  15.2 °C 29.94in /  1013.8hPa NNE 5.0mph /  8km/h 8.0mph /  12.9km/h 52% 0.00in /  0mm
19:29 78.3 °F /  25.7 °C 58.7 °F /  14.8 °C 29.94in /  1013.8hPa NNW 5.0mph /  8km/h 8.0mph /  12.9km/h 51% 0.00in /  0mm
19:34 78.2 °F /  25.7 °C 59.2 °F /  15.1 °C 29.94in /  1013.8hPa NNW 4.0mph /  6.4km/h 5.0mph /  8km/h 52% 0.00in /  0mm
19:39 78.1 °F /  25.6 °C 58.5 °F /  14.7 °C 29.94in /  1013.8hPa NNW 6.0mph /  9.7km/h 7.0mph /  11.3km/h 51% 0.00in /  0mm
19:44 77.8 °F /  25.4 °C 58.2 °F /  14.6 °C 29.94in /  1013.8hPa NNE 4.0mph /  6.4km/h 8.0mph /  12.9km/h 51% 0.00in /  0mm
19:49 77.5 °F /  25.3 °C 58.5 °F /  14.7 °C 29.94in /  1013.8hPa North 3.0mph /  4.8km/h 6.0mph /  9.7km/h 52% 0.00in /  0mm
19:54 77.1 °F /  25.1 °C 58.1 °F /  14.5 °C 29.94in /  1013.8hPa North 2.0mph /  3.2km/h 6.0mph /  9.7km/h 52% 0.00in /  0mm
19:59 76.7 °F /  24.8 °C 58.3 °F /  14.6 °C 29.95in /  1014.1hPa NNE 4.0mph /  6.4km/h 7.0mph /  11.3km/h 53% 0.00in /  0mm
20:04 76.1 °F /  24.5 °C 58.3 °F /  14.6 °C 29.95in /  1014.1hPa NNE 4.0mph /  6.4km/h 10.0mph /  16.1km/h 54% 0.00in /  0mm
20:09 75.4 °F /  24.1 °C 58.1 °F /  14.5 °C 29.95in /  1014.1hPa NNE 7.0mph /  11.3km/h 12.0mph /  19.3km/h 55% 0.00in /  0mm
20:14 74.7 °F /  23.7 °C 58.0 °F /  14.4 °C 29.95in /  1014.1hPa NNE 3.0mph /  4.8km/h 8.0mph /  12.9km/h 56% 0.00in /  0mm
20:20 74.2 °F /  23.4 °C 58.0 °F /  14.4 °C 29.95in /  1014.1hPa NNE 3.0mph /  4.8km/h 8.0mph /  12.9km/h 57% 0.00in /  0mm
20:25 73.7 °F /  23.2 °C 58.0 °F /  14.4 °C 29.95in /  1014.1hPa NNE 2.0mph /  3.2km/h 7.0mph /  11.3km/h 58% 0.00in /  0mm
20:30 73.3 °F /  22.9 °C 57.7 °F /  14.3 °C 29.95in /  1014.1hPa NNW 2.0mph /  3.2km/h 5.0mph /  8km/h 58% 0.00in /  0mm
20:35 72.9 °F /  22.7 °C 57.8 °F /  14.3 °C 29.95in /  1014.1hPa NNW 4.0mph /  6.4km/h 6.0mph /  9.7km/h 59% 0.00in /  0mm
20:40 72.5 °F /  22.5 °C 57.8 °F /  14.3 °C 29.95in /  1014.1hPa NNW 5.0mph /  8km/h 6.0mph /  9.7km/h 60% 0.00in /  0mm
20:45 72.2 °F /  22.3 °C 57.1 °F /  13.9 °C 29.95in /  1014.1hPa NNE 6.0mph /  9.7km/h 8.0mph /  12.9km/h 59% 0.00in /  0mm
20:50 72.0 °F /  22.2 °C 57.4 °F /  14.1 °C 29.95in /  1014.1hPa North 2.0mph /  3.2km/h 8.0mph /  12.9km/h 60% 0.00in /  0mm
20:55 71.7 °F /  22.1 °C 57.5 °F /  14.2 °C 29.95in /  1014.1hPa North 2.0mph /  3.2km/h 7.0mph /  11.3km/h 61% 0.00in /  0mm
21:00 71.3 °F /  21.8 °C 57.6 °F /  14.2 °C 29.95in /  1014.1hPa NE 4.0mph /  6.4km/h 5.0mph /  8km/h 62% 0.00in /  0mm
21:05 70.8 °F /  21.6 °C 57.6 °F /  14.2 °C 29.95in /  1014.1hPa North 1.0mph /  1.6km/h 3.0mph /  4.8km/h 63% 0.00in /  0mm
21:10 70.4 °F /  21.3 °C 57.7 °F /  14.3 °C 29.95in /  1014.1hPa North 1.0mph /  1.6km/h 4.0mph /  6.4km/h 64% 0.00in /  0mm
21:15 70.1 °F /  21.2 °C 57.4 °F /  14.1 °C 29.95in /  1014.1hPa North 1.0mph /  1.6km/h 2.0mph /  3.2km/h 64% 0.00in /  0mm
21:20 69.7 °F /  20.9 °C 57.4 °F /  14.1 °C 29.95in /  1014.1hPa NNW 1.0mph /  1.6km/h 2.0mph /  3.2km/h 65% 0.00in /  0mm
21:25 69.4 °F /  20.8 °C 57.6 °F /  14.2 °C 29.95in /  1014.1hPa North 2.0mph /  3.2km/h 3.0mph /  4.8km/h 66% 0.00in /  0mm
21:30 69.2 °F /  20.7 °C 57.8 °F /  14.3 °C 29.95in /  1014.1hPa North 1.0mph /  1.6km/h 3.0mph /  4.8km/h 67% 0.00in /  0mm
21:35 69.0 °F /  20.6 °C 57.6 °F /  14.2 °C 29.95in /  1014.1hPa NNE 1.0mph /  1.6km/h 2.0mph /  3.2km/h 67% 0.00in /  0mm
21:40 68.7 °F /  20.4 °C 57.7 °F /  14.3 °C 29.95in /  1014.1hPa Calm   1.0mph /  1.6km/h 68% 0.00in /  0mm
21:45 68.5 °F /  20.3 °C 57.9 °F /  14.4 °C 29.96in /  1014.4hPa North 1.0mph /  1.6km/h 2.0mph /  3.2km/h 69% 0.00in /  0mm
21:50 68.3 °F /  20.2 °C 57.8 °F /  14.3 °C 29.96in /  1014.4hPa North 1.0mph /  1.6km/h 2.0mph /  3.2km/h 69% 0.00in /  0mm
21:55 68.2 °F /  20.1 °C 57.7 °F /  14.3 °C 29.96in /  1014.4hPa North 1.0mph /  1.6km/h 2.0mph /  3.2km/h 69% 0.00in /  0mm
22:00 68.0 °F /  20 °C 57.9 °F /  14.4 °C 29.96in /  1014.4hPa Calm   1.0mph /  1.6km/h 70% 0.00in /  0mm
22:05 67.8 °F /  19.9 °C 58.1 °F /  14.5 °C 29.96in /  1014.4hPa NNE 1.0mph /  1.6km/h 2.0mph /  3.2km/h 71% 0.00in /  0mm
22:10 67.7 °F /  19.8 °C 58.0 °F /  14.4 °C 29.96in /  1014.4hPa North 1.0mph /  1.6km/h 2.0mph /  3.2km/h 71% 0.00in /  0mm
22:15 67.5 °F /  19.7 °C 58.2 °F /  14.6 °C 29.96in /  1014.4hPa North 1.0mph /  1.6km/h 2.0mph /  3.2km/h 72% 0.00in /  0mm
22:20 67.3 °F /  19.6 °C 58.0 °F /  14.4 °C 29.97in /  1014.8hPa North 2.0mph /  3.2km/h 2.0mph /  3.2km/h 72% 0.00in /  0mm
22:25 67.2 °F /  19.6 °C 57.9 °F /  14.4 °C 29.97in /  1014.8hPa Calm   3.0mph /  4.8km/h 72% 0.00in /  0mm
22:30 67.1 °F /  19.5 °C 58.2 °F /  14.6 °C 29.97in /  1014.8hPa Calm   1.0mph /  1.6km/h 73% 0.00in /  0mm
22:35 67.0 °F /  19.4 °C 58.1 °F /  14.5 °C 29.97in /  1014.8hPa Calm   2.0mph /  3.2km/h 73% 0.00in /  0mm
22:40 67.1 °F /  19.5 °C 58.2 °F /  14.6 °C 29.97in /  1014.8hPa North 2.0mph /  3.2km/h 3.0mph /  4.8km/h 73% 0.00in /  0mm
22:45 67.0 °F /  19.4 °C 58.5 °F /  14.7 °C 29.97in /  1014.8hPa North 2.0mph /  3.2km/h 3.0mph /  4.8km/h 74% 0.00in /  0mm
22:50 66.8 °F /  19.3 °C 58.3 °F /  14.6 °C 29.97in /  1014.8hPa NNW 2.0mph /  3.2km/h 2.0mph /  3.2km/h 74% 0.00in /  0mm
22:55 66.7 °F /  19.3 °C 58.2 °F /  14.6 °C 29.97in /  1014.8hPa NE 2.0mph /  3.2km/h 2.0mph /  3.2km/h 74% 0.00in /  0mm
23:00 66.7 °F /  19.3 °C 58.2 °F /  14.6 °C 29.97in /  1014.8hPa NNE 2.0mph /  3.2km/h 3.0mph /  4.8km/h 74% 0.00in /  0mm
23:05 66.6 °F /  19.2 °C 58.4 °F /  14.7 °C 29.97in /  1014.8hPa North 1.0mph /  1.6km/h 3.0mph /  4.8km/h 75% 0.00in /  0mm
23:10 66.6 °F /  19.2 °C 58.4 °F /  14.7 °C 29.97in /  1014.8hPa North 2.0mph /  3.2km/h 3.0mph /  4.8km/h 75% 0.00in /  0mm
23:15 66.4 °F /  19.1 °C 58.2 °F /  14.6 °C 29.97in /  1014.8hPa North 1.0mph /  1.6km/h 2.0mph /  3.2km/h 75% 0.00in /  0mm
23:20 66.3 °F /  19.1 °C 58.2 °F /  14.6 °C 29.97in /  1014.8hPa North 2.0mph /  3.2km/h 4.0mph /  6.4km/h 75% 0.00in /  0mm
23:25 66.3 °F /  19.1 °C 58.2 °F /  14.6 °C 29.97in /  1014.8hPa NNE 2.0mph /  3.2km/h 4.0mph /  6.4km/h 75% 0.00in /  0mm
23:30 66.3 °F /  19.1 °C 58.2 °F /  14.6 °C 29.97in /  1014.8hPa NNE 1.0mph /  1.6km/h 2.0mph /  3.2km/h 75% 0.00in /  0mm
23:36 66.3 °F /  19.1 °C 58.2 °F /  14.6 °C 29.97in /  1014.8hPa NNE 1.0mph /  1.6km/h 3.0mph /  4.8km/h 75% 0.00in /  0mm
23:41 66.3 °F /  19.1 °C 58.2 °F /  14.6 °C 29.97in /  1014.8hPa North 1.0mph /  1.6km/h 2.0mph /  3.2km/h 75% 0.00in /  0mm
23:46 66.3 °F /  19.1 °C 58.2 °F /  14.6 °C 29.97in /  1014.8hPa NNE 2.0mph /  3.2km/h 3.0mph /  4.8km/h 75% 0.00in /  0mm
23:51 66.4 °F /  19.1 °C 58.2 °F /  14.6 °C 29.97in /  1014.8hPa NNE 2.0mph /  3.2km/h 3.0mph /  4.8km/h 75% 0.00in /  0mm
23:56 66.4 °F /  19.1 °C 57.9 °F /  14.4 °C 29.97in /  1014.8hPa NNE 1.0mph /  1.6km/h 5.0mph /  8km/h 74% 0.00in /  0mm
Compliments of Weather Underground